createdAt,value
2022-11-21T00:00:02.911Z,1006.14
2022-11-21T00:05:02.940Z,1006.14
2022-11-21T00:10:03.627Z,1006.04
2022-11-21T00:15:02.819Z,1005.86
2022-11-21T00:20:03.551Z,1005.86
2022-11-21T00:25:02.511Z,1005.8
2022-11-21T00:30:03.610Z,1005.8
2022-11-21T00:35:02.935Z,1005.63
2022-11-21T00:40:02.938Z,1005.62
2022-11-21T00:45:02.714Z,1005.56
2022-11-21T00:50:03.240Z,1005.61
2022-11-21T00:55:04.086Z,1005.62
2022-11-21T01:00:02.682Z,1005.52
2022-11-21T01:05:03.512Z,1005.49
2022-11-21T01:10:02.518Z,1005.45
2022-11-21T01:15:02.468Z,1005.4
2022-11-21T01:20:03.463Z,1005.24
2022-11-21T01:25:03.077Z,1005.12
2022-11-21T01:30:04.463Z,1005.02
2022-11-21T01:35:02.723Z,1004.95
2022-11-21T01:40:03.217Z,1004.81
2022-11-21T01:45:03.245Z,1004.76
2022-11-21T01:50:02.934Z,1004.8
2022-11-21T01:55:04.020Z,1004.86
2022-11-21T02:00:03.136Z,1004.83
2022-11-21T02:05:02.780Z,1004.82
2022-11-21T02:10:03.534Z,1004.79
2022-11-21T02:15:02.785Z,1004.78
2022-11-21T02:20:02.434Z,1004.69
2022-11-21T02:25:03.397Z,1004.63
2022-11-21T02:30:03.143Z,1004.58
2022-11-21T02:35:02.384Z,1004.57
2022-11-21T02:40:03.547Z,1004.56
2022-11-21T02:45:03.528Z,1004.5
2022-11-21T02:50:03.333Z,1004.49
2022-11-21T02:55:04.055Z,1004.39
2022-11-21T03:00:03.266Z,1004.33
2022-11-21T03:05:02.882Z,1004.32
2022-11-21T03:10:03.092Z,1004.31
2022-11-21T03:15:03.520Z,1004.28
2022-11-21T03:20:02.603Z,1004.22
2022-11-21T03:25:03.770Z,1004.14
2022-11-21T03:30:03.384Z,1004.22
2022-11-21T03:35:02.670Z,1004.24
2022-11-21T03:40:02.851Z,1004.21
2022-11-21T03:45:03.632Z,1004.24
2022-11-21T03:50:02.845Z,1004.1
2022-11-21T03:55:04.520Z,1004.2
2022-11-21T04:00:03.623Z,1004.1
2022-11-21T04:05:02.478Z,1004.07
2022-11-21T04:10:03.731Z,1004.13
2022-11-21T04:15:08.147Z,1004.01
2022-11-21T04:20:03.163Z,1004.07
2022-11-21T04:25:03.283Z,1004.17
2022-11-21T04:30:02.602Z,1004.19
2022-11-21T04:35:02.928Z,1004.22
2022-11-21T04:40:03.352Z,1004.19
2022-11-21T04:45:03.614Z,1004.28
2022-11-21T04:50:02.915Z,1004.3
2022-11-21T04:55:04.746Z,1004.48
2022-11-21T05:00:02.481Z,1004.51
2022-11-21T05:05:03.479Z,1004.52
2022-11-21T05:10:03.291Z,1004.56
2022-11-21T05:15:03.170Z,1004.49
2022-11-21T05:20:02.889Z,1004.49
2022-11-21T05:25:03.214Z,1004.55
2022-11-21T05:30:02.685Z,1004.66
2022-11-21T05:35:02.681Z,1004.64
2022-11-21T05:40:03.392Z,1004.68
2022-11-21T05:45:02.733Z,1004.72
2022-11-21T05:50:03.008Z,1004.82
2022-11-21T05:55:04.304Z,1004.79
2022-11-21T06:00:02.928Z,1004.88
2022-11-21T06:05:02.674Z,1004.93
2022-11-21T06:10:03.404Z,1005.06
2022-11-21T06:15:02.773Z,1005.13
2022-11-21T06:20:03.119Z,1005.09
2022-11-21T06:25:03.661Z,1005.14
2022-11-21T06:30:02.859Z,1005.24
2022-11-21T06:35:03.149Z,1005.31
2022-11-21T06:40:02.874Z,1005.35
2022-11-21T06:45:03.649Z,1005.41
2022-11-21T06:50:02.760Z,1005.52
2022-11-21T06:55:04.038Z,1005.51
2022-11-21T07:00:03.664Z,1005.64
2022-11-21T07:05:03.227Z,1005.69
2022-11-21T07:10:02.993Z,1005.9
2022-11-21T07:15:02.358Z,1005.94
2022-11-21T07:20:03.441Z,1006.03
2022-11-21T07:25:03.513Z,1006.05
2022-11-21T07:30:03.133Z,1006.11
2022-11-21T07:35:03.232Z,1006.18
2022-11-21T07:40:02.539Z,1006.25
2022-11-21T07:45:03.017Z,1006.28
2022-11-21T07:50:02.264Z,1006.2
2022-11-21T07:55:04.236Z,1006.3
2022-11-21T08:00:03.064Z,1006.34
2022-11-21T08:05:02.809Z,1006.38
2022-11-21T08:10:03.502Z,1006.46
2022-11-21T08:15:02.860Z,1006.51
2022-11-21T08:20:03.389Z,1006.67
2022-11-21T08:25:02.424Z,1006.74
2022-11-21T08:30:03.451Z,1006.71
2022-11-21T08:35:03.084Z,1006.66
2022-11-21T08:40:02.444Z,1006.71
2022-11-21T08:45:03.561Z,1006.7
2022-11-21T08:50:09.389Z,1006.74
2022-11-21T08:55:04.700Z,1006.64
2022-11-21T09:00:03.262Z,1006.71
2022-11-21T09:05:02.552Z,1006.8
2022-11-21T09:10:02.778Z,1006.77
2022-11-21T09:15:03.520Z,1006.77
2022-11-21T09:20:03.388Z,1006.82
2022-11-21T09:25:02.756Z,1006.81
2022-11-21T09:30:03.087Z,1006.86
2022-11-21T09:35:03.481Z,1006.85
2022-11-21T09:40:03.478Z,1006.99
2022-11-21T09:45:03.178Z,1006.93
2022-11-21T09:50:03.072Z,1006.96
2022-11-21T09:55:03.745Z,1006.94
2022-11-21T10:00:03.635Z,1006.94
2022-11-21T10:05:03.568Z,1007.16
2022-11-21T10:10:02.562Z,1007.22
2022-11-21T10:15:03.761Z,1007.23
2022-11-21T10:20:03.610Z,1007.25
2022-11-21T10:25:02.906Z,1007.23
2022-11-21T10:30:02.734Z,1007.22
2022-11-21T10:35:03.097Z,1007.16
2022-11-21T10:40:03.256Z,1007.17
2022-11-21T10:45:02.960Z,1007.21
2022-11-21T10:50:03.565Z,1007.25
2022-11-21T10:55:04.013Z,1007.28
2022-11-21T11:00:02.760Z,1007.33
2022-11-21T11:05:03.274Z,1007.21
2022-11-21T11:10:02.820Z,1007.23
2022-11-21T11:15:02.876Z,1007.2
2022-11-21T11:20:02.217Z,1007.13
2022-11-21T11:25:03.350Z,1007.14
2022-11-21T11:30:02.732Z,1007.06
2022-11-21T11:35:02.651Z,1007.06
2022-11-21T11:40:03.403Z,1007.03
2022-11-21T11:45:02.713Z,1007.05
2022-11-21T11:50:02.927Z,1006.97
2022-11-21T11:55:04.886Z,1007.08
2022-11-21T12:00:03.359Z,1007.08
2022-11-21T12:05:02.756Z,1007.1
2022-11-21T12:10:03.537Z,1007.08
2022-11-21T12:15:03.576Z,1007.14
2022-11-21T12:20:02.516Z,1007.12
2022-11-21T12:25:02.424Z,1007.03
2022-11-21T12:30:03.458Z,1007.01
2022-11-21T12:35:02.821Z,1007.08
2022-11-21T12:40:03.550Z,1007.1
2022-11-21T12:45:03.026Z,1007.06
2022-11-21T12:50:02.938Z,1007.11
2022-11-21T12:55:04.030Z,1007
2022-11-21T13:00:03.533Z,1006.91
2022-11-21T13:05:02.856Z,1006.9
2022-11-21T13:10:03.329Z,1006.87
2022-11-21T13:15:03.565Z,1006.91
2022-11-21T13:20:03.078Z,1006.82
2022-11-21T13:25:02.261Z,1006.7
2022-11-21T13:30:03.425Z,1006.56
2022-11-21T13:35:03.156Z,1006.52
2022-11-21T13:40:02.496Z,1006.51
2022-11-21T13:45:02.230Z,1006.41
2022-11-21T13:50:03.321Z,1006.36
2022-11-21T13:55:03.805Z,1006.32
2022-11-21T14:00:02.893Z,1006.26
2022-11-21T14:05:03.026Z,1006.39
2022-11-21T14:10:02.346Z,1006.27
2022-11-21T14:15:03.582Z,1006.27
2022-11-21T14:20:03.054Z,1006.29
2022-11-21T14:25:02.783Z,1006.26
2022-11-21T14:30:03.608Z,1006.24
2022-11-21T14:35:02.587Z,1006.28
2022-11-21T14:40:03.153Z,1006.26
2022-11-21T14:45:02.692Z,1006.34
2022-11-21T14:50:08.082Z,1006.28
2022-11-21T14:55:32.286Z,1006.27
2022-11-21T15:00:03.069Z,1006.4
2022-11-21T15:05:02.818Z,1006.37
2022-11-21T15:10:32.946Z,1006.42
2022-11-21T15:15:03.087Z,1006.42
2022-11-21T15:20:04.715Z,1006.45
2022-11-21T15:25:02.285Z,1006.5
2022-11-21T15:30:03.756Z,1006.61
2022-11-21T15:35:03.110Z,1006.59
2022-11-21T15:40:02.405Z,1006.54
2022-11-21T15:45:03.710Z,1006.43
2022-11-21T15:50:03.439Z,1006.45
2022-11-21T15:55:04.070Z,1006.44
2022-11-21T16:00:02.544Z,1006.4
2022-11-21T16:05:03.109Z,1006.32
2022-11-21T16:10:03.579Z,1006.16
2022-11-21T16:15:03.326Z,1006.08
2022-11-21T16:20:03.334Z,1006.15
2022-11-21T16:25:03.117Z,1006.07
2022-11-21T16:30:02.527Z,1006.07
2022-11-21T16:35:03.609Z,1005.92
2022-11-21T16:40:03.323Z,1005.84
2022-11-21T16:45:03.393Z,1005.82
2022-11-21T16:50:02.856Z,1005.67
2022-11-21T16:55:04.782Z,1005.77
2022-11-21T17:00:02.684Z,1005.82
2022-11-21T17:05:02.655Z,1005.7
2022-11-21T17:10:03.406Z,1005.63
2022-11-21T17:15:02.923Z,1005.6
2022-11-21T17:20:03.334Z,1005.61
2022-11-21T17:25:02.724Z,1005.65
2022-11-21T17:30:02.828Z,1005.61
2022-11-21T17:35:03.096Z,1005.76
2022-11-21T17:40:02.343Z,1005.66
2022-11-21T17:45:03.513Z,1005.67
2022-11-21T17:50:06.672Z,1005.59
2022-11-21T17:55:04.107Z,1005.44
2022-11-21T18:00:02.761Z,1005.31
2022-11-21T18:05:02.965Z,1005.29
2022-11-21T18:10:44.573Z,1005.34
2022-11-21T18:15:03.304Z,1005.1
2022-11-21T18:20:03.475Z,1005.1
2022-11-21T18:25:02.502Z,1005.08
2022-11-21T18:30:03.108Z,1004.99
2022-11-21T18:35:03.485Z,1004.85
2022-11-21T18:40:02.902Z,1004.68
2022-11-21T18:45:02.411Z,1004.49
2022-11-21T18:50:02.934Z,1004.56
2022-11-21T18:55:03.826Z,1004.33
2022-11-21T19:00:04.016Z,1004.25
2022-11-21T19:05:03.334Z,1004.31
2022-11-21T19:10:44.077Z,1004.2
2022-11-21T19:15:07.440Z,1003.99
2022-11-21T19:20:03.549Z,1003.98
2022-11-21T19:25:02.631Z,1004.07
2022-11-21T19:30:03.619Z,1004.1
2022-11-21T19:35:03.106Z,1004.02
2022-11-21T19:40:02.936Z,1003.94
2022-11-21T19:45:02.708Z,1003.91
2022-11-21T19:50:03.383Z,1003.97
2022-11-21T19:55:03.848Z,1003.86
2022-11-21T20:00:02.978Z,1003.79
2022-11-21T20:05:03.463Z,1003.79
2022-11-21T20:10:03.017Z,1003.7
2022-11-21T20:15:02.349Z,1003.7
2022-11-21T20:20:03.191Z,1003.83
2022-11-21T20:25:02.961Z,1003.95
2022-11-21T20:30:02.768Z,1003.78
2022-11-21T20:35:03.031Z,1003.71
2022-11-21T20:40:03.068Z,1003.67
2022-11-21T20:50:03.507Z,1003.71
2022-11-21T20:55:04.200Z,1003.89
2022-11-21T21:00:03.111Z,1003.88
2022-11-21T21:05:02.726Z,1003.79
2022-11-21T21:10:03.156Z,1003.94
2022-11-21T21:15:03.217Z,1004.12
2022-11-21T21:20:02.835Z,1004.02
2022-11-21T21:25:03.142Z,1004.12
2022-11-21T21:30:03.197Z,1004.15
2022-11-21T21:35:02.816Z,1004.25
2022-11-21T21:40:03.619Z,1004.08
2022-11-21T21:45:03.096Z,1004.13
2022-11-21T21:50:02.528Z,1004.03
2022-11-21T21:55:04.722Z,1003.83
2022-11-21T22:00:03.563Z,1003.86
2022-11-21T22:05:02.827Z,1003.65
2022-11-21T22:10:03.587Z,1003.43
2022-11-21T22:15:03.030Z,1003.22
2022-11-21T22:20:02.644Z,1003.19
2022-11-21T22:25:02.488Z,1003.18
2022-11-21T22:30:03.397Z,1003.3
2022-11-21T22:35:02.775Z,1003.36
2022-11-21T22:40:02.704Z,1003.47
2022-11-21T22:45:03.281Z,1003.44
2022-11-21T22:50:02.473Z,1003.34
2022-11-21T22:55:04.468Z,1003.37
2022-11-21T23:00:03.470Z,1003.27
2022-11-21T23:05:03.149Z,1003.15
2022-11-21T23:10:02.902Z,1002.93
2022-11-21T23:15:03.115Z,1003.02
2022-11-21T23:20:03.039Z,1003.08
2022-11-21T23:25:02.477Z,1002.99
2022-11-21T23:30:03.495Z,1003.05
2022-11-21T23:35:03.020Z,1003.02
2022-11-21T23:40:02.615Z,1003
2022-11-21T23:45:02.421Z,1003.07
2022-11-21T23:50:03.386Z,1002.98
2022-11-21T23:55:04.071Z,1002.99
